My Meet Scores
Sydney Vasquez, Flipstar Gymnastics Academy - MyMeetScores.com
Top100 | Top Teams | Upcoming Meets | Completed Meets | Latest | Add Scores | Help| Support | Bookmark and Share

Sydney Vasquez, Flipstar Gymnastics Academy
Personal Bests
LevelVault BarsBeamFloorAA
58.9009.425 8.7509.22535.700
69.5009.400 9.4009.40037.500
79.6009.075 9.3259.32537.225
89.7008.825 9.2509.65036.875
99.3508.350 9.0759.37535.625
Scores on America's Top 100as of 11.20.2018
Year Level Vault Bars Beam Floor AA
2017 89.700
Meet Scores
Date Meet Team Session Level Division Vault Bars Beam Floor AA
2018-04-12 2018 Region 5 Levels 9/10 Championships Flipstar Gymnastics Academy 08 9 Sr 2 9.200 10T 8.275 21T 8.050 24 9.350 12T 34.875 22
2018-03-16 2018 Illinois Level 6, 9, 10 State Championships Flipstar Gymnastics Academy 05 9 Jr C 9.350 7 8.350 19 8.075 17 9.375 4 35.150 14
2018-02-23 Kinetic Classic Flipstar Gymnastics Academy 3 9 Older 9.350 14 8.350 32 9.075 15T 8.850 19 35.625 21T
2018-02-16 Big Classic Flipstar Gymnastics Academy 5A 9 Senior C 8.875 10 7.500 11 8.950 5T 8.750 8 34.075 8
2018-02-09 IGI Chicago Style Gymnastics Meet Flipstar Gymnastics Academy 51 9 333 Michigan L9 B 0.000 6.600 12 8.400 8 15.000 14
2018-01-26 King Arthur Invitational Flipstar Gymnastics Academy 4 9 JR 9.025 9 6.650 13 8.775 3 8.775 5 33.225 9
2017-04-21 2017 Region 5 Levels 7 & 8 Championships Flipstar Gymnastics Academy 15 8 Sr B 1 9.400 4T 8.825 20 9.150 12T 9.400 6T 36.775 7T
2017-03-16 2017 Illinois Level 8, 9 & 10 State Meet Flipstar Gymnastics Academy All 8 Sr B 9.700 3 8.575 15 9.100 10T 9.500 2T 36.875 7
2017-02-24 Kinetic Classic Flipstar Gymnastics Academy 2 8 All Ages 9.450 3 7.850 42 9.175 16T 9.650 2 36.125 20
2017-02-17 Big Classic Flipstar Gymnastics Academy A 8 Junior B 9.000 16T 8.000 30T 9.250 9T 9.450 8T 35.700 19T
2017-02-10 IGI Chicago Style Gymnastics Meet Flipstar Gymnastics Academy 423R 8 SrB 9.200 3 8.650 9 9.000 6 9.025 7 35.875 3
2016-12-09 Horton Invitational Flipstar Gymnastics Academy 5 8 Younger 8.700 9 6.050 13 8.650 8 9.325 3 32.725 13
2016-04-01 2016 Illinois Level 6 & 7 State Championships Flipstar Gymnastics Academy 01 7 L7 SrB 9.600 2 9.075 10 9.225 3 9.325 11 37.225 6
2016-02-20 Big Classic Flipstar Gymnastics Academy 1A 7 Junior B 9.325 4 8.050 8 8.400 8 9.275 3 35.050 7
2016-02-12 IGI Chicago Style Gymnastics Meet Flipstar Gymnastics Academy 113 7 SrA 9.350 4 0.000 20 9.325 7 8.925 11 27.600 20
2016-01-22 King Arthur Invitational Flipstar Gymnastics Academy S5 7 Sr.A 9.125 11 6.750 18 9.300 7 9.075 15 34.250 16
2015-05-02 2015 Illinois Level 6, 7 State Championships Flipstar Gymnastics Academy 6 Jr.D 8.950 6 8.750 17 9.150 9 9.200 13 36.050 10
2015-03-05 Spring Hill Elgin Invitational Flipstar Gymnastics Academy 6A 6 JR 9.125 6 9.400 3 9.250 8T 9.300 9T 37.075 4T
2015-02-27 Elk Grove Gymnastics Invite Flipstar Gymnastics Academy 6 6 12+yrs 9.500 1 9.200 2 9.400 3 9.400 2 37.500 1
2015-02-13 IGI Chicago Style Gymnastics Meet Flipstar Gymnastics Academy 131 6 11 Yr Olds 9.150 4T 8.625 10T 9.050 7T 9.100 12 35.925 7
2015-01-23 King Arthur Invitational Flipstar Gymnastics Academy 1 6 SrA 9.125 3 8.550 12 9.400 4 9.275 8 36.350 5
2013-04-26 2013 Illinois Level 5 and Xcel State Meet Flipstar Gymnastics Academy 5 Youth.D 8.575 19 8.850 24 8.550 26 9.025 21 35.000 26
2013-02-23 EGGS Invite Flipstar Gymnastics Academy 5 7-9 8.350 13 9.425 1 8.700 7 9.225 1 35.700 3
2013-02-16 BIG Dream Classic 2013 Flipstar Gymnastics Academy 6A 5 Junior A 8.900 20T 9.200 9 8.450 21 8.950 14 35.500 15
2013-02-08 IGI Chicago Style Gymnastics Meet Flipstar Gymnastics Academy 612 5 9 & Under 8.150 36T 9.150 12 8.750 35 8.600 24T 34.650 25
2013-01-12 St. Jude Benefit Meet Flipstar Gymnastics Academy GymA 5 9 8.300 46 9.050 39 8.450 56 8.600 66 34.400 51
2012-11-30 Ultimate Wish Classic 2012 Flipstar Gymnastics Academy 5 L5 Jr B S5 7.500 23 8.550 12 8.050 22 8.200 20 32.300 20

www.lazysuits.com